Time;durP1;ratioP1;P1;durP2;ratioP2;P2;SDS_P1;SDS_P2;PMS_P1;PMS_P2;Temp;Humidity;BMP_temperature;BMP_pressure;BME280_temperature;BME280_humidity;BME280_pressure;Samples;Min_cycle;Max_cycle;Signal;HPM_P1;HPM_P2
2023/05/21 00:01:15;;;;;;;2.90;1.98;;;14.80;99.90;;;;;;4957192;28;20043;-83
2023/05/21 00:03:44;;;;;;;6.45;2.20;;;14.70;99.90;;;;;;4948421;28;20051;-83
2023/05/21 00:06:12;;;;;;;3.42;2.05;;;14.70;99.90;;;;;;4954768;28;20530;-83
2023/05/21 00:08:42;;;;;;;2.45;2.00;;;14.70;99.90;;;;;;4945407;28;20066;-83
2023/05/21 00:11:08;;;;;;;4.32;2.58;;;15.40;99.90;;;;;;4950301;28;20050;-83
2023/05/21 00:13:34;;;;;;;2.35;2.13;;;14.70;99.90;;;;;;4952163;28;20050;-83
2023/05/21 00:15:59;;;;;;;2.30;2.00;;;14.70;99.90;;;;;;4948242;28;20046;-83
2023/05/21 00:18:25;;;;;;;2.78;2.03;;;14.70;99.90;;;;;;4947231;28;20062;-82
2023/05/21 00:20:51;;;;;;;3.67;2.45;;;14.70;99.90;;;;;;4953051;28;20043;-83
2023/05/21 00:23:18;;;;;;;2.75;2.25;;;14.70;99.90;;;;;;4958756;28;20526;-83
2023/05/21 00:25:44;;;;;;;3.40;2.05;;;14.70;99.90;;;;;;4953193;28;20410;-83
2023/05/21 00:28:10;;;;;;;3.85;2.38;;;14.70;99.90;;;;;;4954877;28;20043;-84
2023/05/21 00:30:36;;;;;;;4.72;2.30;;;14.70;99.90;;;;;;4956301;28;20055;-83
2023/05/21 00:33:01;;;;;;;3.38;2.42;;;15.40;99.90;;;;;;4959269;28;20039;-83
2023/05/21 00:35:28;;;;;;;4.50;2.92;;;14.90;99.90;;;;;;4958606;28;20095;-83
2023/05/21 00:37:54;;;;;;;3.80;2.55;;;14.70;99.90;;;;;;4960954;28;20044;-83
2023/05/21 00:40:20;;;;;;;5.13;2.92;;;14.70;99.90;;;;;;4958884;28;20086;-83
2023/05/21 00:42:46;;;;;;;5.38;2.47;;;15.50;99.90;;;;;;4961113;28;20085;-83
2023/05/21 00:45:13;;;;;;;3.65;2.47;;;14.60;99.90;;;;;;4960199;28;20118;-83
2023/05/21 00:47:40;;;;;;;3.97;2.83;;;14.70;99.90;;;;;;4958387;28;20548;-83
2023/05/21 00:50:07;;;;;;;2.92;2.25;;;14.60;99.90;;;;;;4959759;28;20553;-83
2023/05/21 00:52:40;;;;;;;5.35;2.28;;;14.60;99.90;;;;;;4963357;28;20042;-83
2023/05/21 00:55:06;;;;;;;3.90;2.38;;;14.60;99.90;;;;;;4954267;28;20463;-84
2023/05/21 00:57:33;;;;;;;5.50;2.08;;;14.60;99.90;;;;;;4940125;28;20050;-83
2023/05/21 00:59:59;;;;;;;3.35;2.42;;;14.60;99.90;;;;;;4956776;28;20430;-83
2023/05/21 01:02:25;;;;;;;3.53;2.38;;;15.70;99.90;;;;;;4962547;28;20047;-83
2023/05/21 01:04:54;;;;;;;4.90;2.80;;;15.70;99.90;;;;;;4961970;28;20047;-83
2023/05/21 01:07:20;;;;;;;7.80;2.88;;;15.30;99.90;;;;;;4958949;28;20659;-83
2023/05/21 01:09:46;;;;;;;5.68;2.53;;;15.20;99.90;;;;;;4961545;28;20134;-83
2023/05/21 01:12:13;;;;;;;8.05;3.00;;;15.70;99.90;;;;;;4967557;28;20102;-83
2023/05/21 01:14:40;;;;;;;4.22;2.60;;;16.00;99.90;;;;;;4964974;28;20059;-83
2023/05/21 01:17:09;;;;;;;5.65;2.72;;;14.50;99.90;;;;;;4963236;28;20046;-83
2023/05/21 01:19:35;;;;;;;3.95;2.20;;;15.80;99.90;;;;;;4964400;28;20043;-83
2023/05/21 01:22:06;;;;;;;14.25;3.22;;;16.10;99.90;;;;;;4965490;28;20053;-84
2023/05/21 01:24:31;;;;;;;3.80;2.45;;;14.50;99.90;;;;;;4961496;28;20251;-83
2023/05/21 01:26:59;;;;;;;4.00;2.38;;;15.30;99.90;;;;;;4959791;28;20517;-83
2023/05/21 01:29:25;;;;;;;5.65;2.70;;;14.50;99.90;;;;;;4959295;28;20098;-83
2023/05/21 01:32:27;;;;;;;6.25;2.72;;;16.00;99.90;;;;;;4947344;28;20459;-83
2023/05/21 01:35:10;;;;;;;2.65;2.45;;;14.50;99.90;;;;;;4945765;28;20057;-83
2023/05/21 01:38:03;;;;;;;6.80;2.95;;;14.40;99.90;;;;;;4959623;28;20059;-84
2023/05/21 01:40:42;;;;;;;5.47;2.78;;;14.40;99.90;;;;;;4959676;28;20051;-83
2023/05/21 01:43:09;;;;;;;6.32;2.60;;;14.40;99.90;;;;;;4950878;28;20050;-83
2023/05/21 01:45:39;;;;;;;5.60;3.35;;;14.20;99.90;;;;;;4941284;28;20042;-84
2023/05/21 01:48:06;;;;;;;3.63;2.70;;;16.30;99.90;;;;;;4946098;28;20071;-83
2023/05/21 01:50:34;;;;;;;4.32;2.92;;;15.30;99.90;;;;;;4942625;28;20035;-83
2023/05/21 01:52:59;;;;;;;5.43;3.17;;;15.70;99.90;;;;;;4943820;28;20070;-84
2023/05/21 01:55:27;;;;;;;5.47;2.63;;;14.40;99.90;;;;;;4943461;28;21931;-83
2023/05/21 01:57:54;;;;;;;6.90;2.70;;;14.40;99.90;;;;;;4950702;28;20130;-84
2023/05/21 02:00:21;;;;;;;7.38;3.10;;;14.40;99.90;;;;;;4957077;28;20036;-84
2023/05/21 02:02:47;;;;;;;4.40;2.70;;;14.30;99.90;;;;;;4949705;28;20051;-83
2023/05/21 02:05:13;;;;;;;4.05;2.58;;;14.40;99.90;;;;;;4939266;28;20043;-84
2023/05/21 02:07:39;;;;;;;7.00;3.03;;;15.50;99.90;;;;;;4923097;28;20051;-83
2023/05/21 02:10:06;;;;;;;6.00;2.67;;;14.30;99.90;;;;;;4927910;28;20403;-84
2023/05/21 02:12:32;;;;;;;4.78;3.30;;;14.30;99.90;;;;;;4931824;28;20094;-83
2023/05/21 02:14:58;;;;;;;7.65;3.55;;;14.30;99.90;;;;;;4948607;28;20438;-83
2023/05/21 02:17:25;;;;;;;4.72;2.88;;;15.30;99.90;;;;;;4953983;28;20054;-83
2023/05/21 02:19:50;;;;;;;4.40;2.90;;;15.50;99.90;;;;;;4951770;28;20132;-83
2023/05/21 02:22:16;;;;;;;4.18;3.22;;;15.40;99.90;;;;;;4953477;28;20067;-83
2023/05/21 02:24:42;;;;;;;4.68;3.47;;;15.60;99.90;;;;;;4953737;28;20143;-83
2023/05/21 02:27:09;;;;;;;4.13;3.72;;;14.20;99.90;;;;;;4951815;28;20039;-83
2023/05/21 02:29:36;;;;;;;6.57;3.47;;;15.60;99.90;;;;;;4950203;28;20066;-83
2023/05/21 02:32:01;;;;;;;4.80;3.33;;;14.20;99.90;;;;;;4959863;28;20043;-85
2023/05/21 02:34:31;;;;;;;6.15;3.35;;;14.20;99.90;;;;;;4955856;28;20045;-83
2023/05/21 02:36:57;;;;;;;7.68;3.40;;;16.10;99.90;;;;;;4961062;28;20081;-82
2023/05/21 02:39:23;;;;;;;7.22;4.03;;;14.50;99.90;;;;;;4956467;28;20067;-83
2023/05/21 02:41:50;;;;;;;5.53;3.35;;;15.40;99.90;;;;;;4938363;28;20093;-83
2023/05/21 02:44:17;;;;;;;7.30;3.58;;;14.10;99.90;;;;;;4943021;28;20142;-82
2023/05/21 02:46:43;;;;;;;6.35;3.67;;;14.10;99.90;;;;;;4959552;28;20410;-83
2023/05/21 02:49:09;;;;;;;6.03;4.18;;;15.70;99.90;;;;;;4947095;28;20039;-83
2023/05/21 02:51:34;;;;;;;8.38;3.63;;;14.10;99.90;;;;;;4954441;28;20039;-83
2023/05/21 02:54:00;;;;;;;5.25;4.00;;;15.90;99.90;;;;;;4956428;28;20103;-83
2023/05/21 02:56:25;;;;;;;6.47;3.97;;;13.10;99.90;;;;;;4955939;28;20372;-83
2023/05/21 02:58:51;;;;;;;6.68;4.25;;;14.10;99.90;;;;;;4950771;28;20035;-83
2023/05/21 03:01:17;;;;;;;5.40;3.88;;;14.00;99.90;;;;;;4972552;28;20106;-83
2023/05/21 03:03:42;;;;;;;6.07;3.65;;;14.00;99.90;;;;;;4958340;28;20043;-83
2023/05/21 03:06:09;;;;;;;6.13;4.18;;;14.00;99.90;;;;;;4957593;28;20049;-83
2023/05/21 03:08:36;;;;;;;6.70;4.22;;;13.20;99.90;;;;;;4951652;28;20043;-83
2023/05/21 03:11:01;;;;;;;6.38;4.20;;;14.00;99.90;;;;;;4956485;28;20026;-83
2023/05/21 03:13:27;;;;;;;4.88;4.22;;;13.90;99.90;;;;;;4958137;28;20135;-83
2023/05/21 03:15:55;;;;;;;5.07;4.20;;;14.40;99.90;;;;;;4960362;28;20534;-83
2023/05/21 03:18:22;;;;;;;7.95;4.47;;;14.00;99.90;;;;;;4952258;28;20045;-83
2023/05/21 03:20:47;;;;;;;6.88;3.85;;;14.00;99.90;;;;;;4952652;28;20062;-82
2023/05/21 03:23:14;;;;;;;6.82;4.03;;;14.80;99.90;;;;;;4949599;28;20419;-83
2023/05/21 03:25:40;;;;;;;4.85;4.35;;;13.90;99.90;;;;;;4959707;28;20074;-83
2023/05/21 03:28:08;;;;;;;7.97;4.97;;;14.20;99.90;;;;;;4954059;28;20043;-83
2023/05/21 03:30:37;;;;;;;7.10;4.32;;;13.90;99.90;;;;;;4965194;28;20039;-83
2023/05/21 03:33:03;;;;;;;7.35;4.88;;;13.90;99.90;;;;;;4964471;28;20534;-83
2023/05/21 03:35:29;;;;;;;6.40;4.70;;;13.90;99.90;;;;;;4956084;28;20047;-83
2023/05/21 03:37:55;;;;;;;9.32;4.88;;;14.90;99.90;;;;;;4952879;28;20047;-83
2023/05/21 03:40:23;;;;;;;6.68;4.70;;;13.90;99.90;;;;;;4951744;28;20051;-83
2023/05/21 03:42:49;;;;;;;6.78;4.72;;;15.90;99.90;;;;;;4958352;28;20037;-83
2023/05/21 03:45:15;;;;;;;7.68;5.00;;;14.20;99.90;;;;;;4946548;28;20045;-83
2023/05/21 03:47:41;;;;;;;8.38;5.03;;;15.30;99.90;;;;;;4938868;28;20050;-83
2023/05/21 03:50:08;;;;;;;8.23;4.72;;;13.90;99.90;;;;;;4941146;28;20047;-84
2023/05/21 03:52:33;;;;;;;7.32;5.25;;;13.80;99.90;;;;;;4940714;28;20042;-84
2023/05/21 03:54:59;;;;;;;8.63;4.68;;;13.80;99.90;;;;;;4941961;28;20042;-84
2023/05/21 03:57:25;;;;;;;7.82;5.13;;;13.80;99.90;;;;;;4943079;28;20402;-84
2023/05/21 03:59:50;;;;;;;7.72;5.20;;;13.80;99.90;;;;;;4942894;28;20050;-84
2023/05/21 04:02:16;;;;;;;5.70;5.05;;;13.80;99.90;;;;;;4941807;28;20187;-84
2023/05/21 04:04:43;;;;;;;8.68;4.35;;;13.70;99.90;;;;;;4942057;28;20039;-84
2023/05/21 04:07:13;;;;;;;7.88;4.50;;;15.20;99.90;;;;;;4942248;28;20181;-84
2023/05/21 04:09:39;;;;;;;7.65;5.00;;;14.10;99.90;;;;;;4939529;28;20058;-84
2023/05/21 04:12:06;;;;;;;9.07;4.95;;;15.60;99.90;;;;;;4942208;28;20031;-84
2023/05/21 04:14:33;;;;;;;6.25;4.63;;;13.70;99.90;;;;;;4940579;28;20047;-84
2023/05/21 04:16:58;;;;;;;7.25;4.60;;;13.70;99.90;;;;;;4942707;28;20423;-84
2023/05/21 04:19:24;;;;;;;10.45;5.18;;;13.70;99.90;;;;;;4953622;28;20215;-84
2023/05/21 04:21:52;;;;;;;9.65;4.93;;;15.30;99.90;;;;;;4960367;28;20054;-84
2023/05/21 04:24:18;;;;;;;9.20;5.07;;;13.70;99.90;;;;;;4986168;28;20546;-84
2023/05/21 04:26:43;;;;;;;6.97;4.65;;;15.00;99.90;;;;;;4959159;28;20138;-84
2023/05/21 04:29:09;;;;;;;7.72;4.45;;;15.20;99.90;;;;;;4956401;28;20045;-84
2023/05/21 04:31:35;;;;;;;8.43;4.47;;;13.70;99.90;;;;;;4950832;28;20390;-85
2023/05/21 04:34:00;;;;;;;7.78;4.57;;;14.50;99.90;;;;;;4953631;28;20042;-84
2023/05/21 04:36:27;;;;;;;9.85;4.90;;;15.30;99.90;;;;;;4953832;28;20062;-84
2023/05/21 04:38:53;;;;;;;9.35;4.35;;;13.70;99.90;;;;;;4953398;28;20049;-85
2023/05/21 04:41:20;;;;;;;10.70;4.80;;;15.30;99.90;;;;;;4945068;28;20054;-83
2023/05/21 04:43:45;;;;;;;7.70;4.25;;;14.00;99.90;;;;;;4954127;28;20118;-83
2023/05/21 04:46:11;;;;;;;7.72;3.97;;;15.30;99.90;;;;;;4955491;28;20106;-83
2023/05/21 04:48:37;;;;;;;8.43;4.75;;;13.70;99.90;;;;;;4951115;28;20483;-83
2023/05/21 04:51:04;;;;;;;8.13;4.15;;;14.20;99.90;;;;;;4955109;28;20046;-83
2023/05/21 04:53:30;;;;;;;7.60;4.25;;;14.00;99.90;;;;;;4944679;28;20113;-83
2023/05/21 04:55:58;;;;;;;8.07;3.70;;;13.70;99.90;;;;;;4954928;28;20114;-83
2023/05/21 04:58:23;;;;;;;7.25;3.45;;;13.80;99.90;;;;;;4942963;28;20047;-83
2023/05/21 05:00:50;;;;;;;6.57;3.80;;;14.50;99.90;;;;;;4942156;28;20034;-84
2023/05/21 05:03:17;;;;;;;5.97;3.30;;;13.80;99.90;;;;;;4940743;28;20104;-83
2023/05/21 05:05:42;;;;;;;6.88;3.50;;;15.60;99.90;;;;;;4941349;28;20125;-83
2023/05/21 05:08:08;;;;;;;9.82;3.95;;;14.60;99.90;;;;;;4952216;28;20226;-84
2023/05/21 05:10:35;;;;;;;5.28;3.60;;;13.80;99.90;;;;;;4949759;28;20078;-84
2023/05/21 05:13:00;;;;;;;12.68;3.67;;;13.80;99.90;;;;;;4957999;28;20047;-84
2023/05/21 05:15:26;;;;;;;6.90;3.80;;;13.80;99.90;;;;;;4962699;28;20054;-84
2023/05/21 05:17:53;;;;;;;7.18;3.30;;;14.00;99.90;;;;;;4954415;28;20121;-84
2023/05/21 05:20:19;;;;;;;7.63;3.58;;;15.30;99.90;;;;;;4964685;28;20244;-83
2023/05/21 05:22:44;;;;;;;6.45;3.42;;;14.30;99.90;;;;;;4969970;28;20583;-84
2023/05/21 05:25:10;;;;;;;9.60;3.47;;;13.90;99.90;;;;;;4964935;28;20047;-84
2023/05/21 05:27:35;;;;;;;10.32;4.18;;;13.90;99.90;;;;;;4951207;29;20074;-84
2023/05/21 05:30:01;;;;;;;8.07;3.72;;;13.90;99.90;;;;;;4964001;28;20041;-84
2023/05/21 05:32:27;;;;;;;6.93;3.70;;;13.90;99.90;;;;;;4955870;28;20049;-84
2023/05/21 05:34:52;;;;;;;8.20;4.13;;;13.90;99.90;;;;;;4959995;28;20465;-83
2023/05/21 05:37:18;;;;;;;9.98;3.72;;;14.00;99.90;;;;;;4957646;28;20043;-84
2023/05/21 05:39:44;;;;;;;7.63;3.28;;;15.90;99.90;;;;;;4957454;28;20055;-84
2023/05/21 05:42:09;;;;;;;6.18;3.22;;;15.50;99.90;;;;;;4950699;28;20397;-84
2023/05/21 05:44:35;;;;;;;5.32;3.38;;;14.20;99.90;;;;;;4957640;28;20043;-84
2023/05/21 05:47:00;;;;;;;6.32;3.92;;;15.00;99.90;;;;;;4960155;28;20050;-84
2023/05/21 05:49:26;;;;;;;6.03;3.45;;;14.40;99.90;;;;;;4964712;28;20046;-84
2023/05/21 05:51:52;;;;;;;6.82;3.35;;;14.10;99.90;;;;;;4961417;28;20462;-84
2023/05/21 05:54:18;;;;;;;8.77;4.32;;;15.50;99.90;;;;;;4959858;28;20047;-84
2023/05/21 05:56:44;;;;;;;6.65;3.13;;;14.80;99.90;;;;;;4986739;28;20101;-84
2023/05/21 05:59:09;;;;;;;6.25;2.90;;;14.10;99.90;;;;;;4964156;28;20039;-83
2023/05/21 06:01:44;;;;;;;5.60;3.35;;;13.60;99.90;;;;;;4961411;28;20134;-84
2023/05/21 06:04:09;;;;;;;8.05;3.35;;;16.10;99.90;;;;;;4960346;28;20500;-84
2023/05/21 06:06:35;;;;;;;7.15;3.70;;;14.10;99.90;;;;;;4954057;28;20483;-83
2023/05/21 06:09:01;;;;;;;8.80;3.33;;;14.20;99.90;;;;;;4954505;28;20081;-84
2023/05/21 06:11:27;;;;;;;6.85;3.33;;;14.20;99.90;;;;;;4965399;28;20122;-84
2023/05/21 06:13:56;;;;;;;7.07;3.63;;;14.20;99.90;;;;;;4952059;28;20178;-83
2023/05/21 06:16:21;;;;;;;11.57;4.47;;;14.20;99.90;;;;;;4951831;29;20126;-83
2023/05/21 06:18:58;;;;;;;9.23;3.72;;;14.30;99.90;;;;;;4956509;28;20186;-84
2023/05/21 06:21:27;;;;;;;5.00;3.10;;;14.30;99.90;;;;;;4952610;28;20051;-83
2023/05/21 06:23:53;;;;;;;5.68;3.47;;;14.30;99.90;;;;;;4955678;28;20045;-83
2023/05/21 06:26:18;;;;;;;8.82;3.50;;;14.30;99.90;;;;;;4959525;28;20043;-83
2023/05/21 06:28:44;;;;;;;14.32;11.10;;;14.30;99.90;;;;;;4958940;28;20039;-84
2023/05/21 06:31:10;;;;;;;27.30;18.58;;;14.40;99.90;;;;;;4948515;28;20058;-84
2023/05/21 06:33:36;;;;;;;6.93;5.03;;;14.40;99.90;;;;;;4955403;28;20043;-82
2023/05/21 06:36:02;;;;;;;8.15;3.35;;;14.40;99.90;;;;;;4966576;28;20491;-82
2023/05/21 06:38:29;;;;;;;6.20;3.22;;;14.40;99.90;;;;;;4962078;28;20043;-83
2023/05/21 06:40:55;;;;;;;6.78;3.60;;;14.50;99.90;;;;;;4958215;28;20491;-83
2023/05/21 06:43:20;;;;;;;6.45;3.70;;;16.30;99.90;;;;;;4958448;28;20082;-83
2023/05/21 06:45:46;;;;;;;8.25;4.00;;;14.50;99.90;;;;;;4955276;28;20043;-83
2023/05/21 06:48:14;;;;;;;6.72;3.42;;;14.50;99.90;;;;;;4951632;28;20044;-83
2023/05/21 06:50:40;;;;;;;6.65;3.30;;;14.50;99.90;;;;;;4955635;28;20050;-84
2023/05/21 06:53:06;;;;;;;8.95;3.97;;;15.90;99.90;;;;;;4950015;28;20043;-83
2023/05/21 06:55:31;;;;;;;9.52;3.72;;;16.10;99.90;;;;;;4966381;28;20023;-84
2023/05/21 06:57:57;;;;;;;9.98;4.10;;;14.70;99.90;;;;;;4956610;28;20050;-83
2023/05/21 07:00:24;;;;;;;8.77;4.35;;;14.70;99.90;;;;;;4961033;28;20050;-84
2023/05/21 07:02:53;;;;;;;6.35;3.88;;;14.70;99.90;;;;;;4993271;28;20061;-84
2023/05/21 07:05:19;;;;;;;7.57;4.00;;;14.70;99.90;;;;;;4955874;28;20043;-84
2023/05/21 07:07:45;;;;;;;9.60;4.07;;;14.80;99.90;;;;;;4959569;28;20051;-84
2023/05/21 07:10:10;;;;;;;6.35;3.40;;;14.80;99.90;;;;;;4957109;28;20052;-84
2023/05/21 07:12:36;;;;;;;5.50;3.35;;;15.80;99.90;;;;;;4970163;28;20058;-86
2023/05/21 07:15:02;;;;;;;5.43;3.63;;;16.80;99.90;;;;;;4970408;28;20047;-88
2023/05/21 07:17:27;;;;;;;9.18;3.90;;;14.80;99.90;;;;;;4957806;28;20043;-84
2023/05/21 07:19:53;;;;;;;8.60;4.25;;;14.90;99.90;;;;;;4956033;28;20039;-80
2023/05/21 07:22:18;;;;;;;6.82;3.47;;;14.90;99.90;;;;;;4958077;28;20050;-81
2023/05/21 07:24:44;;;;;;;9.80;3.60;;;15.60;99.90;;;;;;4952071;28;20043;-80
2023/05/21 07:27:10;;;;;;;8.68;3.83;;;16.60;99.90;;;;;;4959717;28;20059;-80
2023/05/21 07:29:35;;;;;;;5.00;3.65;;;15.10;99.90;;;;;;4956652;28;20073;-80
2023/05/21 07:32:02;;;;;;;9.23;4.10;;;15.00;99.90;;;;;;4951766;28;20073;-80
2023/05/21 07:34:28;;;;;;;8.05;3.47;;;15.00;99.90;;;;;;4967076;28;20114;-80
2023/05/21 07:36:54;;;;;;;7.90;5.68;;;15.00;99.90;;;;;;4962205;28;20565;-81
2023/05/21 07:39:20;;;;;;;10.02;6.07;;;15.10;99.90;;;;;;4958650;28;20051;-81
2023/05/21 07:41:45;;;;;;;7.25;4.35;;;15.10;99.90;;;;;;4950504;28;20082;-79
2023/05/21 07:44:11;;;;;;;4.43;3.50;;;15.10;99.90;;;;;;4954636;28;20564;-82
2023/05/21 07:46:36;;;;;;;8.65;3.90;;;15.20;99.90;;;;;;4950067;28;20510;-82
2023/05/21 07:49:02;;;;;;;6.20;3.53;;;16.40;99.90;;;;;;4957962;28;20503;-83
2023/05/21 07:51:28;;;;;;;9.70;3.72;;;16.80;99.90;;;;;;4948912;28;20039;-83
2023/05/21 07:53:54;;;;;;;6.50;3.30;;;17.00;99.90;;;;;;4955443;28;20457;-83
2023/05/21 07:56:20;;;;;;;11.07;3.35;;;16.60;99.90;;;;;;4956729;28;20043;-83
2023/05/21 07:59:02;;;;;;;6.28;3.35;;;15.90;99.90;;;;;;4971475;28;20695;-83
2023/05/21 08:01:29;;;;;;;8.30;3.40;;;15.40;99.90;;;;;;4952382;28;20043;-83
2023/05/21 08:03:55;;;;;;;6.95;3.22;;;15.50;99.90;;;;;;4951746;28;20039;-84
2023/05/21 08:06:23;;;;;;;8.27;3.55;;;17.00;99.90;;;;;;4950615;28;20047;-84
2023/05/21 08:08:49;;;;;;;7.80;3.72;;;15.40;99.90;;;;;;4950664;28;20141;-83
2023/05/21 08:11:15;;;;;;;10.02;3.58;;;16.00;99.90;;;;;;4946887;28;20078;-84
2023/05/21 08:13:40;;;;;;;6.65;3.97;;;17.30;99.90;;;;;;4952271;28;20051;-82
2023/05/21 08:16:06;;;;;;;6.20;3.38;;;15.70;99.90;;;;;;4950050;28;20051;-82
2023/05/21 08:18:32;;;;;;;7.15;3.40;;;15.70;99.90;;;;;;4949710;28;20047;-82
2023/05/21 08:20:59;;;;;;;9.10;3.30;;;15.70;99.90;;;;;;4947100;28;20099;-82
2023/05/21 08:23:26;;;;;;;6.40;3.47;;;15.70;99.90;;;;;;4946189;28;20141;-82
2023/05/21 08:25:52;;;;;;;6.18;3.08;;;15.80;99.90;;;;;;4947635;28;20466;-82
2023/05/21 08:28:18;;;;;;;6.70;3.10;;;15.80;99.90;;;;;;4949008;28;20151;-82
2023/05/21 08:30:43;;;;;;;5.28;3.17;;;16.90;99.90;;;;;;4977159;28;20122;-84
2023/05/21 08:33:09;;;;;;;6.82;3.20;;;15.90;99.90;;;;;;4947609;28;20094;-84
2023/05/21 08:35:34;;;;;;;6.00;3.22;;;17.40;99.90;;;;;;4946954;28;20085;-84
2023/05/21 08:38:00;;;;;;;4.57;2.92;;;15.90;99.90;;;;;;4980879;28;20364;-84
2023/05/21 08:40:26;;;;;;;5.85;3.40;;;16.20;99.90;;;;;;4946956;28;20453;-83
2023/05/21 08:42:51;;;;;;;7.88;3.55;;;16.00;99.90;;;;;;4963837;28;20051;-83
2023/05/21 08:45:21;;;;;;;6.95;3.22;;;16.80;99.90;;;;;;4950797;28;20150;-82
2023/05/21 08:47:55;;;;;;;5.68;3.38;;;17.40;99.90;;;;;;4950526;28;20052;-81
2023/05/21 08:50:23;;;;;;;6.35;3.53;;;16.60;99.90;;;;;;4944284;28;20050;-82
2023/05/21 08:52:49;;;;;;;5.40;2.67;;;16.20;99.90;;;;;;4960785;28;20051;-82
2023/05/21 08:55:15;;;;;;;4.65;3.55;;;17.40;99.90;;;;;;4956947;28;20574;-83
2023/05/21 08:57:43;;;;;;;8.30;3.88;;;16.30;99.90;;;;;;4952335;28;20384;-82
2023/05/21 09:00:10;;;;;;;11.32;3.75;;;16.30;99.90;;;;;;4956232;28;20059;-86
2023/05/21 09:02:39;;;;;;;7.75;3.60;;;16.40;99.90;;;;;;4954328;28;20394;-86
2023/05/21 09:05:06;;;;;;;6.40;3.78;;;16.50;99.90;;;;;;4962130;28;20039;-84
2023/05/21 09:07:42;;;;;;;6.45;3.53;;;16.50;99.90;;;;;;4949848;28;20047;-81
2023/05/21 09:10:12;;;;;;;7.75;3.85;;;16.60;99.90;;;;;;4959197;28;20394;-84
2023/05/21 09:12:38;;;;;;;10.75;3.80;;;17.50;99.90;;;;;;4955832;28;20040;-84
2023/05/21 09:15:05;;;;;;;7.13;3.40;;;16.70;99.90;;;;;;4954155;28;20225;-83
2023/05/21 09:17:30;;;;;;;7.60;4.10;;;16.70;99.90;;;;;;4956080;28;20463;-82
2023/05/21 09:20:16;;;;;;;6.15;3.47;;;17.90;99.90;;;;;;4957357;28;20051;-81
2023/05/21 09:22:49;;;;;;;10.85;4.22;;;16.80;99.90;;;;;;4956208;28;20047;-82
2023/05/21 09:25:16;;;;;;;7.28;3.13;;;17.10;99.90;;;;;;4963379;28;20047;-83
2023/05/21 09:27:42;;;;;;;5.32;3.78;;;16.90;99.90;;;;;;4962292;28;20051;-81
2023/05/21 09:30:13;;;;;;;6.28;3.80;;;17.40;99.90;;;;;;4950250;28;20482;-85
2023/05/21 09:32:40;;;;;;;4.13;3.05;;;17.00;99.90;;;;;;4953336;28;20241;-82
2023/05/21 09:35:14;;;;;;;8.45;3.83;;;17.10;99.90;;;;;;4955334;28;20061;-83
2023/05/21 09:37:46;;;;;;;5.60;3.38;;;17.10;99.90;;;;;;4952846;28;20094;-81
2023/05/21 09:40:22;;;;;;;8.32;3.55;;;17.20;99.90;;;;;;4949975;28;20051;-83
2023/05/21 09:42:50;;;;;;;6.63;3.35;;;16.40;99.90;;;;;;4947164;28;20460;-85
2023/05/21 09:45:20;;;;;;;6.15;3.58;;;17.30;99.90;;;;;;4959903;28;20548;-85
2023/05/21 09:47:50;;;;;;;8.57;3.80;;;17.30;99.90;;;;;;4959153;28;20043;-83
2023/05/21 09:50:18;;;;;;;6.05;3.35;;;17.40;99.90;;;;;;4960450;28;20486;-83
2023/05/21 09:52:44;;;;;;;4.50;3.50;;;17.40;99.90;;;;;;4951935;28;20435;-84
2023/05/21 09:55:11;;;;;;;8.27;3.53;;;17.40;99.90;;;;;;4952909;28;20047;-83
2023/05/21 09:57:42;;;;;;;4.70;3.40;;;17.50;99.90;;;;;;4956497;28;20518;-83
2023/05/21 10:00:16;;;;;;;8.88;3.70;;;17.50;99.90;;;;;;4952573;28;20035;-84
2023/05/21 10:02:44;;;;;;;7.82;3.40;;;17.50;99.90;;;;;;4949526;28;20101;-87
2023/05/21 10:05:12;;;;;;;5.00;3.65;;;18.20;99.90;;;;;;4948477;28;20039;-81
2023/05/21 10:07:40;;;;;;;5.45;3.42;;;17.60;99.90;;;;;;4948706;28;20321;-83
2023/05/21 10:10:09;;;;;;;7.63;3.78;;;17.60;99.90;;;;;;4951427;28;20495;-83
2023/05/21 10:12:35;;;;;;;6.75;3.70;;;17.70;99.90;;;;;;4957819;28;20043;-81
2023/05/21 10:15:03;;;;;;;7.18;3.72;;;17.70;99.90;;;;;;4959554;28;20472;-82
2023/05/21 10:17:29;;;;;;;8.25;3.72;;;17.80;99.90;;;;;;4950543;28;20077;-84
2023/05/21 10:19:56;;;;;;;4.43;3.55;;;17.90;99.90;;;;;;4948131;28;20162;-83
2023/05/21 10:22:23;;;;;;;4.05;2.78;;;17.90;99.90;;;;;;4933323;28;20403;-83
2023/05/21 10:24:50;;;;;;;7.28;2.97;;;18.00;99.90;;;;;;4953795;28;20039;-84
2023/05/21 10:27:17;;;;;;;9.73;3.45;;;18.20;99.90;;;;;;4950142;28;20090;-84
2023/05/21 10:29:44;;;;;;;6.55;2.60;;;18.00;99.90;;;;;;4957823;28;20042;-84
2023/05/21 10:32:12;;;;;;;8.32;4.20;;;18.10;99.90;;;;;;4940651;28;20474;-83
2023/05/21 10:34:37;;;;;;;6.85;3.50;;;18.50;99.90;;;;;;4951288;28;20035;-84
2023/05/21 10:37:06;;;;;;;7.57;3.22;;;18.30;99.90;;;;;;4954009;28;20494;-85
2023/05/21 10:39:34;;;;;;;9.02;3.80;;;18.30;99.90;;;;;;4958245;28;20066;-83
2023/05/21 10:42:02;;;;;;;8.50;3.67;;;18.60;99.90;;;;;;4955222;28;20119;-83
2023/05/21 10:44:58;;;;;;;4.45;3.17;;;18.40;99.90;;;;;;4958608;28;20039;-84
2023/05/21 10:47:39;;;;;;;6.43;3.75;;;18.40;99.90;;;;;;4953327;28;20082;-82
2023/05/21 10:50:20;;;;;;;7.55;3.78;;;18.40;99.90;;;;;;4975570;28;20053;-83
2023/05/21 10:53:44;;;;;;;6.18;3.38;;;18.50;99.90;;;;;;4956043;28;20102;-83
2023/05/21 10:56:35;;;;;;;4.95;3.05;;;18.50;99.90;;;;;;4941160;28;20492;-84
2023/05/21 10:59:11;;;;;;;7.25;3.45;;;18.60;99.90;;;;;;4963271;28;20062;-83
2023/05/21 11:01:39;;;;;;;5.05;3.20;;;18.60;99.90;;;;;;4948530;28;20047;-84
2023/05/21 11:04:05;;;;;;;7.70;3.22;;;19.50;99.90;;;;;;4952544;28;20492;-82
2023/05/21 11:06:31;;;;;;;6.18;3.10;;;18.70;99.90;;;;;;4960822;28;20047;-85
2023/05/21 11:09:01;;;;;;;6.88;3.13;;;18.80;99.90;;;;;;4956041;28;20115;-86
2023/05/21 11:11:49;;;;;;;6.93;3.05;;;18.80;99.90;;;;;;4952893;28;20078;-83
2023/05/21 11:14:56;;;;;;;5.15;2.90;;;18.90;99.90;;;;;;4952130;28;20046;-83
2023/05/21 11:17:39;;;;;;;8.43;3.53;;;19.00;99.90;;;;;;4947018;29;20553;-84
2023/05/21 11:20:12;;;;;;;8.25;4.35;;;19.10;99.90;;;;;;4971763;28;20046;-87
2023/05/21 11:22:38;;;;;;;12.85;5.55;;;19.20;99.90;;;;;;4953931;28;20057;-86
2023/05/21 11:25:05;;;;;;;10.23;6.20;;;19.30;99.90;;;;;;4960064;28;20047;-87
2023/05/21 11:27:39;;;;;;;7.75;3.70;;;19.40;99.90;;;;;;4963268;28;20071;-87
2023/05/21 11:30:16;;;;;;;8.73;3.85;;;19.80;99.90;;;;;;4963769;28;20482;-86
2023/05/21 11:33:08;;;;;;;7.55;3.22;;;19.70;99.90;;;;;;4954162;28;20122;-84
2023/05/21 11:35:53;;;;;;;6.85;3.65;;;19.80;99.90;;;;;;4972451;28;20529;-84
2023/05/21 11:38:21;;;;;;;6.97;3.13;;;18.80;99.90;;;;;;4947661;28;20439;-82
2023/05/21 11:40:53;;;;;;;4.95;3.58;;;20.00;99.90;;;;;;4951076;28;20059;-84
2023/05/21 11:43:19;;;;;;;9.15;3.97;;;20.10;99.90;;;;;;4989591;28;20399;-86
2023/05/21 11:45:46;;;;;;;10.55;4.30;;;20.20;99.90;;;;;;4958172;28;20038;-85
2023/05/21 11:48:15;;;;;;;5.15;4.30;;;20.30;99.90;;;;;;4957853;28;20057;-85
2023/05/21 11:50:44;;;;;;;7.90;4.45;;;20.80;99.90;;;;;;4960369;28;20446;-85
2023/05/21 11:53:11;;;;;;;8.43;4.55;;;21.40;99.90;;;;;;4952950;28;20368;-85
2023/05/21 11:55:42;;;;;;;8.35;3.95;;;20.60;99.90;;;;;;4952920;28;20128;-83
2023/05/21 11:58:12;;;;;;;7.53;4.57;;;20.70;99.90;;;;;;4945854;28;20105;-82
2023/05/21 12:00:39;;;;;;;7.63;4.43;;;20.80;99.90;;;;;;4955597;28;20035;-83
2023/05/21 12:03:06;;;;;;;9.82;4.82;;;20.90;99.90;;;;;;4960542;28;20294;-83
2023/05/21 12:05:44;;;;;;;6.15;4.50;;;20.90;99.90;;;;;;4952881;28;20043;-83
2023/05/21 12:08:09;;;;;;;6.60;4.35;;;20.90;99.90;;;;;;4956078;28;20053;-83
2023/05/21 12:10:38;;;;;;;7.43;5.35;;;20.90;99.90;;;;;;4952233;28;20126;-83
2023/05/21 12:13:04;;;;;;;11.82;4.95;;;21.00;99.90;;;;;;4956750;28;20038;-83
2023/05/21 12:15:29;;;;;;;7.22;5.05;;;21.20;99.90;;;;;;4962182;28;20050;-82
2023/05/21 12:17:55;;;;;;;10.00;5.50;;;20.90;99.90;;;;;;4954495;28;20203;-83
2023/05/21 12:20:22;;;;;;;9.77;5.60;;;22.20;99.90;;;;;;4956369;28;20083;-81
2023/05/21 12:22:48;;;;;;;10.73;5.72;;;21.00;99.90;;;;;;4945891;28;20047;-82
2023/05/21 12:25:18;;;;;;;8.18;6.28;;;21.00;99.90;;;;;;4957206;28;20050;-88
2023/05/21 12:27:45;;;;;;;8.77;5.30;;;21.10;99.90;;;;;;4954813;28;20050;-87
2023/05/21 12:30:11;;;;;;;6.97;5.40;;;21.20;99.90;;;;;;4954034;28;20129;-83
2023/05/21 12:32:42;;;;;;;9.05;5.88;;;21.20;99.90;;;;;;4959523;28;20043;-82
2023/05/21 12:35:08;;;;;;;13.60;6.28;;;21.30;99.90;;;;;;4958689;28;20050;-82
2023/05/21 12:37:34;;;;;;;7.38;6.05;;;21.30;99.90;;;;;;4964597;28;20043;-83
2023/05/21 12:40:06;;;;;;;9.32;5.97;;;21.40;99.90;;;;;;4963454;28;20124;-84
2023/05/21 12:42:35;;;;;;;9.30;5.80;;;22.10;99.90;;;;;;4963114;28;20081;-83
2023/05/21 12:45:07;;;;;;;9.30;5.70;;;21.70;99.90;;;;;;4962182;28;20034;-83
2023/05/21 12:47:33;;;;;;;7.85;6.40;;;21.70;99.90;;;;;;4965813;28;20103;-84
2023/05/21 12:50:12;;;;;;;11.15;6.65;;;21.80;99.90;;;;;;4948699;28;20039;-83